createdAt,value
2023-03-03T00:00:11.452Z,1.95
2023-03-03T00:02:41.788Z,2.35
2023-03-03T00:05:09.340Z,2.15
2023-03-03T00:07:36.327Z,2.28
2023-03-03T00:10:04.088Z,2.17
2023-03-03T00:12:31.719Z,2.17
2023-03-03T00:14:58.775Z,2.10
2023-03-03T00:17:30.716Z,2.65
2023-03-03T00:19:57.673Z,2.38
2023-03-03T00:22:36.152Z,2.38
2023-03-03T00:25:29.377Z,2.42
2023-03-03T00:28:01.878Z,2.38
2023-03-03T00:30:29.597Z,1.98
2023-03-03T00:32:56.769Z,1.90
2023-03-03T00:35:38.811Z,2.20
2023-03-03T00:38:18.365Z,1.95
2023-03-03T00:40:48.051Z,1.92
2023-03-03T00:43:21.386Z,2.00
2023-03-03T00:45:58.709Z,2.05
2023-03-03T00:48:43.022Z,1.88
2023-03-03T00:51:31.104Z,1.65
2023-03-03T00:53:59.745Z,1.92
2023-03-03T00:56:27.819Z,2.10
2023-03-03T00:58:54.938Z,2.00
2023-03-03T01:01:25.642Z,2.30
2023-03-03T01:03:54.263Z,1.88
2023-03-03T01:06:21.316Z,2.17
2023-03-03T01:08:48.340Z,2.05
2023-03-03T01:11:28.691Z,1.67
2023-03-03T01:13:57.224Z,2.00
2023-03-03T01:16:24.345Z,1.90
2023-03-03T01:18:51.360Z,2.15
2023-03-03T01:21:18.495Z,2.30
2023-03-03T01:23:45.557Z,2.10
2023-03-03T01:26:12.552Z,2.22
2023-03-03T01:28:39.561Z,2.00
2023-03-03T01:31:07.074Z,1.98
2023-03-03T01:33:36.402Z,3.03
2023-03-03T01:36:04.643Z,2.50
2023-03-03T01:38:32.298Z,2.38
2023-03-03T01:41:00.417Z,2.30
2023-03-03T01:43:29.237Z,2.85
2023-03-03T01:45:59.203Z,2.88
2023-03-03T01:48:38.203Z,2.78
2023-03-03T01:51:08.140Z,2.38
2023-03-03T01:53:42.792Z,2.58
2023-03-03T01:56:10.829Z,2.30
2023-03-03T01:58:44.262Z,2.00
2023-03-03T02:01:17.865Z,2.25
2023-03-03T02:03:45.374Z,2.13
2023-03-03T02:06:16.759Z,2.95
2023-03-03T02:08:49.347Z,2.40
2023-03-03T02:11:16.948Z,2.67
2023-03-03T02:13:43.924Z,2.50
2023-03-03T02:16:11.018Z,1.88
2023-03-03T02:18:38.514Z,1.80
2023-03-03T02:21:12.541Z,3.15
2023-03-03T02:23:57.793Z,2.35
2023-03-03T02:26:27.470Z,2.30
2023-03-03T02:28:59.826Z,2.60
2023-03-03T02:31:30.697Z,2.60
2023-03-03T02:33:57.848Z,2.63
2023-03-03T02:36:30.460Z,1.92
2023-03-03T02:39:15.691Z,2.67
2023-03-03T02:41:53.460Z,2.13
2023-03-03T02:44:27.350Z,2.42
2023-03-03T02:46:58.196Z,3.03
2023-03-03T02:49:34.012Z,2.78
2023-03-03T02:52:05.695Z,2.58
2023-03-03T02:54:33.490Z,2.20
2023-03-03T02:57:03.401Z,2.67
2023-03-03T02:59:30.836Z,2.60
2023-03-03T03:02:02.611Z,2.65
2023-03-03T03:04:29.856Z,2.80
2023-03-03T03:06:57.127Z,2.63
2023-03-03T03:09:28.394Z,2.50
2023-03-03T03:11:55.851Z,2.55
2023-03-03T03:14:26.234Z,2.60
2023-03-03T03:16:54.699Z,2.78
2023-03-03T03:19:21.898Z,2.55
2023-03-03T03:21:48.990Z,2.40
2023-03-03T03:24:16.808Z,2.53
2023-03-03T03:26:48.261Z,2.72
2023-03-03T03:29:15.731Z,2.83
2023-03-03T03:31:43.975Z,2.53
2023-03-03T03:34:11.178Z,2.55
2023-03-03T03:36:40.026Z,2.80
2023-03-03T03:39:08.080Z,2.50
2023-03-03T03:41:38.033Z,2.53
2023-03-03T03:44:05.260Z,2.50
2023-03-03T03:46:32.325Z,2.55
2023-03-03T03:48:59.424Z,2.70
2023-03-03T03:51:26.916Z,2.50
2023-03-03T03:53:53.909Z,3.08
2023-03-03T03:56:21.070Z,2.75
2023-03-03T03:58:51.692Z,2.53
2023-03-03T04:01:18.935Z,2.95
2023-03-03T04:03:49.324Z,3.28
2023-03-03T04:06:19.654Z,2.80
2023-03-03T04:08:47.601Z,3.00
2023-03-03T04:11:15.837Z,3.13
2023-03-03T04:13:43.153Z,2.60
2023-03-03T04:16:12.087Z,2.38
2023-03-03T04:18:44.391Z,2.78
2023-03-03T04:21:15.616Z,3.13
2023-03-03T04:23:43.955Z,2.55
2023-03-03T04:26:11.499Z,2.58
2023-03-03T04:28:39.298Z,2.63
2023-03-03T04:31:07.152Z,3.00
2023-03-03T04:33:34.798Z,3.30
2023-03-03T04:36:03.256Z,2.53
2023-03-03T04:38:31.391Z,3.28
2023-03-03T04:40:58.480Z,3.85
2023-03-03T04:43:28.294Z,2.85
2023-03-03T04:45:56.367Z,3.10
2023-03-03T04:48:23.762Z,3.05
2023-03-03T04:50:51.029Z,3.03
2023-03-03T04:53:18.057Z,3.22
2023-03-03T04:55:45.214Z,3.85
2023-03-03T04:58:12.608Z,2.65
2023-03-03T05:00:40.492Z,2.35
2023-03-03T05:03:11.925Z,2.70
2023-03-03T05:05:41.810Z,3.00
2023-03-03T05:08:08.808Z,3.60
2023-03-03T05:10:35.826Z,3.33
2023-03-03T05:13:02.928Z,3.95
2023-03-03T05:15:29.935Z,3.35
2023-03-03T05:17:57.181Z,3.00
2023-03-03T05:20:24.747Z,3.78
2023-03-03T05:22:52.529Z,2.65
2023-03-03T05:25:19.548Z,2.90
2023-03-03T05:27:46.690Z,2.80
2023-03-03T05:30:13.894Z,2.65
2023-03-03T05:32:40.987Z,2.80
2023-03-03T05:35:08.420Z,2.90
2023-03-03T05:37:35.390Z,3.17
2023-03-03T05:40:02.368Z,2.83
2023-03-03T05:42:30.379Z,2.78
2023-03-03T05:44:57.650Z,2.28
2023-03-03T05:47:24.714Z,2.83
2023-03-03T05:49:51.741Z,2.33
2023-03-03T05:52:18.730Z,2.65
2023-03-03T05:54:45.801Z,2.80
2023-03-03T05:57:12.790Z,2.63
2023-03-03T05:59:39.853Z,2.53
2023-03-03T06:02:07.021Z,2.60
2023-03-03T06:04:34.452Z,3.08
2023-03-03T06:07:01.709Z,3.08
2023-03-03T06:09:29.454Z,2.58
2023-03-03T06:11:56.581Z,2.60
2023-03-03T06:14:26.005Z,3.17
2023-03-03T06:16:53.976Z,1.98
2023-03-03T06:19:21.273Z,2.55
2023-03-03T06:21:48.251Z,2.55
2023-03-03T06:24:16.473Z,2.92
2023-03-03T06:26:43.658Z,2.72
2023-03-03T06:29:10.629Z,2.55
2023-03-03T06:31:37.679Z,3.47
2023-03-03T06:34:04.651Z,3.17
2023-03-03T06:36:31.690Z,3.15
2023-03-03T06:38:58.660Z,2.70
2023-03-03T06:41:25.671Z,2.78
2023-03-03T06:43:52.768Z,2.88
2023-03-03T06:46:19.753Z,3.00
2023-03-03T06:48:46.798Z,3.05
2023-03-03T06:51:24.802Z,2.83
2023-03-03T06:53:56.105Z,2.58
2023-03-03T06:56:25.841Z,3.00
2023-03-03T06:58:58.765Z,2.50
2023-03-03T07:01:25.950Z,2.63
2023-03-03T07:03:53.086Z,2.78
2023-03-03T07:06:26.058Z,2.70
2023-03-03T07:08:53.357Z,2.42
2023-03-03T07:11:22.916Z,2.67
2023-03-03T07:13:55.614Z,3.30
2023-03-03T07:16:27.527Z,2.30
2023-03-03T07:18:55.834Z,2.58
2023-03-03T07:21:35.754Z,2.60
2023-03-03T07:24:29.409Z,2.65
2023-03-03T07:27:14.117Z,2.22
2023-03-03T07:29:41.649Z,2.60
2023-03-03T07:32:43.396Z,2.60
2023-03-03T07:35:43.839Z,2.85
2023-03-03T07:38:53.182Z,2.80
2023-03-03T07:41:21.145Z,2.80
2023-03-03T07:44:06.112Z,2.85
2023-03-03T07:46:45.230Z,2.28
2023-03-03T07:49:36.906Z,3.10
2023-03-03T07:52:26.926Z,2.72
2023-03-03T07:54:56.708Z,2.70
2023-03-03T07:57:27.142Z,2.60
2023-03-03T08:00:02.339Z,2.55
2023-03-03T08:02:41.678Z,2.70
2023-03-03T08:05:43.849Z,2.80
2023-03-03T08:08:16.216Z,2.85
2023-03-03T08:10:52.774Z,2.50
2023-03-03T08:13:25.333Z,2.53
2023-03-03T08:16:10.867Z,4.20
2023-03-03T08:18:46.475Z,2.97
2023-03-03T08:21:16.729Z,3.22
2023-03-03T08:23:44.917Z,3.08
2023-03-03T08:26:14.127Z,2.67
2023-03-03T08:28:41.444Z,3.03
2023-03-03T08:31:18.315Z,3.22
2023-03-03T08:33:49.525Z,2.20
2023-03-03T08:36:16.582Z,2.42
2023-03-03T08:38:43.710Z,2.55
2023-03-03T08:41:10.755Z,2.40
2023-03-03T08:43:37.717Z,2.17
2023-03-03T08:46:06.926Z,2.78
2023-03-03T08:48:38.518Z,2.55
2023-03-03T08:51:06.103Z,2.30
2023-03-03T08:53:36.624Z,2.72
2023-03-03T08:56:05.181Z,2.40
2023-03-03T08:58:35.541Z,3.08
2023-03-03T09:01:03.997Z,2.83
2023-03-03T09:03:31.102Z,2.53
2023-03-03T09:05:58.156Z,2.58
2023-03-03T09:08:25.244Z,2.63
2023-03-03T09:10:52.233Z,3.13
2023-03-03T09:13:20.312Z,2.92
2023-03-03T09:15:49.350Z,2.60
2023-03-03T09:18:37.279Z,2.55
2023-03-03T09:21:25.648Z,2.50
2023-03-03T09:23:57.235Z,2.75
2023-03-03T09:26:30.302Z,2.50
2023-03-03T09:29:24.026Z,2.38
2023-03-03T09:31:53.430Z,2.40
2023-03-03T09:34:24.753Z,2.42
2023-03-03T09:36:55.977Z,2.25
2023-03-03T09:39:26.358Z,2.30
2023-03-03T09:42:27.226Z,2.33
2023-03-03T09:45:19.211Z,1.90
2023-03-03T09:48:11.517Z,2.97
2023-03-03T09:50:38.483Z,2.90
2023-03-03T09:53:17.391Z,2.80
2023-03-03T09:55:44.448Z,2.72
2023-03-03T09:58:45.792Z,2.80
2023-03-03T10:01:21.670Z,2.80
2023-03-03T10:04:22.641Z,3.10
2023-03-03T10:07:14.269Z,2.20
2023-03-03T10:10:18.370Z,3.22
2023-03-03T10:13:05.408Z,2.72
2023-03-03T10:15:54.108Z,2.20
2023-03-03T10:18:36.818Z,2.28
2023-03-03T10:21:16.468Z,2.75
2023-03-03T10:23:58.349Z,2.20
2023-03-03T10:26:54.614Z,2.97
2023-03-03T10:29:49.026Z,2.83
2023-03-03T10:32:38.703Z,2.67
2023-03-03T10:35:14.663Z,2.65
2023-03-03T10:38:14.851Z,1.92
2023-03-03T10:40:48.274Z,2.05
2023-03-03T10:43:36.426Z,2.67
2023-03-03T10:46:22.118Z,1.88
2023-03-03T10:49:04.703Z,2.15
2023-03-03T10:52:03.609Z,2.42
2023-03-03T10:54:56.190Z,2.20
2023-03-03T10:57:32.104Z,2.42
2023-03-03T11:00:31.730Z,2.80
2023-03-03T11:03:26.475Z,2.75
2023-03-03T11:05:58.125Z,2.20
2023-03-03T11:08:46.582Z,2.30
2023-03-03T11:11:32.239Z,2.75
2023-03-03T11:14:06.685Z,2.10
2023-03-03T11:16:47.579Z,2.20
2023-03-03T11:19:52.929Z,2.45
2023-03-03T11:22:33.502Z,1.98
2023-03-03T11:25:18.878Z,2.35
2023-03-03T11:28:31.055Z,2.08
2023-03-03T11:30:58.109Z,2.80
2023-03-03T11:33:37.236Z,2.65
2023-03-03T11:36:52.263Z,2.33
2023-03-03T11:39:23.749Z,2.10
2023-03-03T11:42:37.764Z,2.35
2023-03-03T11:45:19.943Z,1.90
2023-03-03T11:48:01.260Z,2.20
2023-03-03T11:50:58.669Z,2.00
2023-03-03T11:53:30.010Z,2.20
2023-03-03T11:56:14.796Z,2.10
2023-03-03T11:58:58.232Z,1.85
2023-03-03T12:01:42.063Z,2.25
2023-03-03T12:04:22.382Z,2.15
2023-03-03T12:07:18.920Z,2.83
2023-03-03T12:10:01.574Z,2.47
2023-03-03T12:13:02.275Z,1.88
2023-03-03T12:15:33.761Z,2.38
2023-03-03T12:18:29.803Z,2.22
2023-03-03T12:21:15.609Z,2.20
2023-03-03T12:23:45.678Z,2.40
2023-03-03T12:26:29.737Z,2.20
2023-03-03T12:29:11.905Z,2.60
2023-03-03T12:31:50.901Z,2.50
2023-03-03T12:34:23.620Z,2.40
2023-03-03T12:37:16.698Z,1.92
2023-03-03T12:40:09.419Z,1.80
2023-03-03T12:43:26.045Z,1.98
2023-03-03T12:46:28.517Z,2.03
2023-03-03T12:48:55.884Z,1.60
2023-03-03T12:51:35.823Z,2.33
2023-03-03T12:54:11.964Z,2.30
2023-03-03T12:56:55.629Z,2.50
2023-03-03T12:59:34.750Z,2.30
2023-03-03T13:02:33.603Z,1.80
2023-03-03T13:05:28.170Z,2.10
2023-03-03T13:08:39.356Z,1.95
2023-03-03T13:11:29.196Z,1.80
2023-03-03T13:14:13.084Z,1.60
2023-03-03T13:16:55.357Z,1.98
2023-03-03T13:19:27.649Z,1.77
2023-03-03T13:22:09.704Z,2.03
2023-03-03T13:24:55.570Z,2.05
2023-03-03T13:27:28.162Z,2.30
2023-03-03T13:30:19.428Z,2.10
2023-03-03T13:33:03.158Z,2.10
2023-03-03T13:35:54.246Z,2.33
2023-03-03T13:38:26.407Z,1.92
2023-03-03T13:41:06.142Z,1.90
2023-03-03T13:43:43.414Z,2.50
2023-03-03T13:46:55.016Z,2.42
2023-03-03T13:49:29.560Z,2.22
2023-03-03T13:52:08.202Z,2.22
2023-03-03T13:54:47.300Z,2.15
2023-03-03T13:57:23.166Z,2.40
2023-03-03T14:00:12.003Z,2.70
2023-03-03T14:03:00.424Z,3.05
2023-03-03T14:05:48.688Z,2.45
2023-03-03T14:08:34.150Z,2.25
2023-03-03T14:11:04.280Z,2.70
2023-03-03T14:13:57.745Z,2.63
2023-03-03T14:16:41.928Z,2.60
2023-03-03T14:19:33.180Z,2.45
2023-03-03T14:22:30.578Z,2.50
2023-03-03T14:25:02.739Z,2.80
2023-03-03T14:28:00.772Z,2.95
2023-03-03T14:30:28.258Z,3.08
2023-03-03T14:33:10.835Z,2.85
2023-03-03T14:35:43.279Z,2.55
2023-03-03T14:38:23.803Z,3.10
2023-03-03T14:41:14.319Z,3.03
2023-03-03T14:43:44.056Z,3.08
2023-03-03T14:46:32.247Z,2.90
2023-03-03T14:49:32.894Z,2.63
2023-03-03T14:52:04.730Z,3.13
2023-03-03T14:54:38.799Z,2.85
2023-03-03T14:57:46.189Z,3.00
2023-03-03T15:00:13.761Z,3.38
2023-03-03T15:02:46.460Z,3.33
2023-03-03T15:05:19.797Z,3.35
2023-03-03T15:07:53.613Z,3.92
2023-03-03T15:10:47.141Z,3.22
2023-03-03T15:13:20.112Z,3.20
2023-03-03T15:16:01.084Z,3.17
2023-03-03T15:18:32.586Z,3.10
2023-03-03T15:21:08.130Z,3.42
2023-03-03T15:23:47.278Z,3.47
2023-03-03T15:26:30.073Z,4.05
2023-03-03T15:29:34.529Z,3.60
2023-03-03T15:32:21.548Z,3.55
2023-03-03T15:35:01.868Z,2.80
2023-03-03T15:37:55.463Z,2.95
2023-03-03T15:40:52.791Z,3.20
2023-03-03T15:43:27.613Z,3.63
2023-03-03T15:46:35.352Z,3.00
2023-03-03T15:49:31.249Z,3.38
2023-03-03T15:52:33.323Z,3.13
2023-03-03T15:55:36.703Z,3.28
2023-03-03T15:58:30.553Z,2.80
2023-03-03T16:01:03.610Z,3.13
2023-03-03T16:03:56.683Z,2.70
2023-03-03T16:06:38.704Z,3.10
2023-03-03T16:09:23.522Z,3.35
2023-03-03T16:11:59.980Z,3.40
2023-03-03T16:14:39.096Z,3.05
2023-03-03T16:17:15.156Z,3.65
2023-03-03T16:20:14.330Z,3.42
2023-03-03T16:23:02.405Z,3.05
2023-03-03T16:25:47.904Z,3.38
2023-03-03T16:28:23.090Z,3.22
2023-03-03T16:31:13.129Z,3.10
2023-03-03T16:33:55.454Z,3.03
2023-03-03T16:36:29.626Z,2.83
2023-03-03T16:39:26.058Z,2.97
2023-03-03T16:42:05.160Z,2.78
2023-03-03T16:44:38.530Z,3.00
2023-03-03T16:47:35.660Z,2.90
2023-03-03T16:50:15.832Z,2.92
2023-03-03T16:52:54.136Z,2.58
2023-03-03T16:55:56.220Z,2.97
2023-03-03T16:58:46.761Z,3.33
2023-03-03T17:01:28.851Z,2.70
2023-03-03T17:03:55.852Z,2.95
2023-03-03T17:06:33.937Z,2.45
2023-03-03T17:09:32.849Z,2.20
2023-03-03T17:12:09.314Z,2.10
2023-03-03T17:14:48.651Z,2.50
2023-03-03T17:17:35.479Z,3.05
2023-03-03T17:20:28.976Z,2.65
2023-03-03T17:23:03.182Z,2.63
2023-03-03T17:26:08.330Z,2.53
2023-03-03T17:29:01.120Z,2.33
2023-03-03T17:31:51.956Z,2.40
2023-03-03T17:34:40.979Z,2.30
2023-03-03T17:37:07.939Z,2.30
2023-03-03T17:40:18.017Z,2.90
2023-03-03T17:43:19.266Z,2.58
2023-03-03T17:45:50.591Z,2.55
2023-03-03T17:48:20.624Z,2.53
2023-03-03T17:51:15.584Z,2.65
2023-03-03T17:53:50.438Z,2.50
2023-03-03T17:56:53.124Z,2.50
2023-03-03T17:59:34.768Z,2.67
2023-03-03T18:02:30.520Z,2.42
2023-03-03T18:05:24.855Z,3.10
2023-03-03T18:08:24.923Z,2.58
2023-03-03T18:11:14.167Z,3.28
2023-03-03T18:13:55.884Z,3.13
2023-03-03T18:16:28.035Z,2.95
2023-03-03T18:19:01.089Z,3.30
2023-03-03T18:21:36.941Z,3.72
2023-03-03T18:24:27.893Z,2.95
2023-03-03T18:26:56.427Z,3.70
2023-03-03T18:29:28.272Z,4.13
2023-03-03T18:31:58.150Z,3.38
2023-03-03T18:34:36.309Z,3.50
2023-03-03T18:37:30.563Z,3.20
2023-03-03T18:40:03.806Z,3.08
2023-03-03T18:42:39.120Z,3.08
2023-03-03T18:45:18.151Z,3.30
2023-03-03T18:48:00.856Z,3.30
2023-03-03T18:50:34.963Z,3.33
2023-03-03T18:53:20.493Z,3.72
2023-03-03T18:55:50.661Z,3.47
2023-03-03T18:58:17.646Z,4.40
2023-03-03T19:00:54.832Z,3.72
2023-03-03T19:03:34.253Z,3.90
2023-03-03T19:06:02.870Z,4.03
2023-03-03T19:08:44.397Z,3.58
2023-03-03T19:11:32.787Z,4.53
2023-03-03T19:14:21.324Z,3.72
2023-03-03T19:16:49.789Z,3.58
2023-03-03T19:19:23.250Z,3.17
2023-03-03T19:22:26.373Z,3.40
2023-03-03T19:25:26.930Z,3.10
2023-03-03T19:28:15.722Z,3.72
2023-03-03T19:30:51.735Z,3.25
2023-03-03T19:33:40.906Z,3.75
2023-03-03T19:36:37.441Z,3.67
2023-03-03T19:39:25.372Z,3.80
2023-03-03T19:42:10.857Z,4.20
2023-03-03T19:44:43.612Z,3.90
2023-03-03T19:47:13.263Z,4.07
2023-03-03T19:50:05.356Z,3.50
2023-03-03T19:52:41.434Z,3.65
2023-03-03T19:55:20.519Z,3.67
2023-03-03T19:58:07.014Z,3.78
2023-03-03T20:00:52.299Z,3.67
2023-03-03T20:03:41.003Z,3.53
2023-03-03T20:06:10.563Z,3.50
2023-03-03T20:09:02.968Z,3.58
2023-03-03T20:11:59.265Z,3.40
2023-03-03T20:14:35.313Z,3.33
2023-03-03T20:17:30.772Z,3.67
2023-03-03T20:20:22.949Z,3.08
2023-03-03T20:23:17.057Z,3.45
2023-03-03T20:26:04.269Z,3.70
2023-03-03T20:29:06.598Z,3.78
2023-03-03T20:32:01.393Z,3.50
2023-03-03T20:35:00.553Z,3.20
2023-03-03T20:37:55.420Z,4.03
2023-03-03T20:40:40.587Z,4.65
2023-03-03T20:43:22.083Z,4.20
2023-03-03T20:46:08.055Z,5.15
2023-03-03T20:48:53.631Z,4.78
2023-03-03T20:51:57.859Z,4.47
2023-03-03T20:54:40.610Z,4.28
2023-03-03T20:57:29.018Z,4.70
2023-03-03T21:00:02.709Z,3.95
2023-03-03T21:02:46.674Z,4.32
2023-03-03T21:05:20.015Z,4.05
2023-03-03T21:08:08.201Z,4.40
2023-03-03T21:10:37.523Z,4.10
2023-03-03T21:13:29.616Z,3.70
2023-03-03T21:16:03.113Z,3.50
2023-03-03T21:18:30.567Z,3.60
2023-03-03T21:20:57.571Z,3.90
2023-03-03T21:23:24.611Z,4.13
2023-03-03T21:25:54.246Z,4.05
2023-03-03T21:28:26.912Z,4.22
2023-03-03T21:31:14.158Z,4.05
2023-03-03T21:33:58.200Z,4.13
2023-03-03T21:36:37.032Z,4.10
2023-03-03T21:39:23.027Z,3.70
2023-03-03T21:41:56.204Z,3.70
2023-03-03T21:44:52.535Z,4.10
2023-03-03T21:47:22.485Z,3.90
2023-03-03T21:49:51.573Z,4.43
2023-03-03T21:52:20.744Z,3.58
2023-03-03T21:54:49.733Z,4.03
2023-03-03T21:57:17.168Z,3.97
2023-03-03T21:59:44.141Z,4.55
2023-03-03T22:02:11.143Z,4.25
2023-03-03T22:04:42.306Z,4.35
2023-03-03T22:07:09.866Z,3.97
2023-03-03T22:09:37.898Z,4.03
2023-03-03T22:12:06.196Z,4.10
2023-03-03T22:14:33.599Z,3.90
2023-03-03T22:17:00.632Z,4.28
2023-03-03T22:19:27.607Z,4.32
2023-03-03T22:21:54.597Z,4.60
2023-03-03T22:24:21.615Z,3.80
2023-03-03T22:26:48.679Z,4.03
2023-03-03T22:29:17.244Z,3.63
2023-03-03T22:31:44.274Z,3.80
2023-03-03T22:34:11.400Z,4.07
2023-03-03T22:36:38.408Z,3.58
2023-03-03T22:39:05.394Z,3.58
2023-03-03T22:41:34.992Z,4.15
2023-03-03T22:44:01.952Z,3.42
2023-03-03T22:46:28.952Z,4.03
2023-03-03T22:48:56.026Z,3.88
2023-03-03T22:51:23.038Z,3.85
2023-03-03T22:53:50.148Z,3.67
2023-03-03T22:56:17.239Z,4.20
2023-03-03T22:58:44.259Z,3.80
2023-03-03T23:01:11.273Z,3.50
2023-03-03T23:03:38.423Z,3.45
2023-03-03T23:06:05.838Z,3.25
2023-03-03T23:08:32.880Z,3.92
2023-03-03T23:10:59.864Z,3.50
2023-03-03T23:13:27.496Z,3.80
2023-03-03T23:15:58.571Z,3.97
2023-03-03T23:18:29.682Z,3.63
2023-03-03T23:20:57.230Z,3.25
2023-03-03T23:23:24.737Z,4.40
2023-03-03T23:25:51.747Z,3.75
2023-03-03T23:28:19.445Z,3.17
2023-03-03T23:30:46.524Z,3.50
2023-03-03T23:33:13.798Z,3.58
2023-03-03T23:35:41.218Z,3.17
2023-03-03T23:38:08.382Z,3.13
2023-03-03T23:40:35.407Z,2.95
2023-03-03T23:43:02.461Z,3.10
2023-03-03T23:45:29.447Z,3.05
2023-03-03T23:47:56.691Z,3.53
2023-03-03T23:50:23.686Z,3.20
2023-03-03T23:52:50.896Z,3.22
2023-03-03T23:55:17.982Z,3.40
2023-03-03T23:57:45.017Z,3.13
